Time;durP1;ratioP1;P1;durP2;ratioP2;P2;SDS_P1;SDS_P2;PMS_P1;PMS_P2;Temp;Humidity;BMP_temperature;BMP_pressure;BME280_temperature;BME280_humidity;BME280_pressure;Samples;Min_cycle;Max_cycle;Signal;HPM_P1;HPM_P2
2023/11/21 00:00:49;;;;;;;3.78;0.70;;;;;;;;;;5040927;28;20427;-76
2023/11/21 00:03:19;;;;;;;2.60;0.43;;;;;;;;;;5042175;28;20080;-76
2023/11/21 00:05:50;;;;;;;4.22;0.52;;;;;;;;;;5039570;28;20048;-74
2023/11/21 00:08:24;;;;;;;2.40;0.90;;;;;;;;;;5041365;28;20045;-75
2023/11/21 00:10:54;;;;;;;3.00;1.05;;;;;;;;;;5041294;28;20431;-76
2023/11/21 00:13:25;;;;;;;9.02;1.02;;;;;;;;;;5040833;28;20812;-75
2023/11/21 00:15:59;;;;;;;5.80;0.85;;;;;;;;;;5040407;28;20060;-76
2023/11/21 00:18:30;;;;;;;1.52;0.70;;;;;;;;;;5041392;28;20443;-74
2023/11/21 00:21:00;;;;;;;3.58;0.50;;;;;;;;;;5024778;28;20049;-76
2023/11/21 00:23:30;;;;;;;2.83;0.40;;;;;;;;;;5024793;28;20049;-75
2023/11/21 00:26:00;;;;;;;14.63;0.82;;;;;;;;;;5025178;28;20033;-72
2023/11/21 00:28:35;;;;;;;2.85;0.70;;;;;;;;;;5025294;28;20583;-75
2023/11/21 00:31:06;;;;;;;5.43;0.70;;;;;;;;;;5024595;28;20415;-75
2023/11/21 00:33:36;;;;;;;6.22;0.70;;;;;;;;;;5024980;28;20048;-74
2023/11/21 00:36:09;;;;;;;5.95;0.85;;;;;;;;;;5023928;28;20079;-74
2023/11/21 00:38:41;;;;;;;5.85;1.27;;;;;;;;;;5025286;28;20045;-75
2023/11/21 00:41:16;;;;;;;8.23;1.13;;;;;;;;;;5022876;28;20531;-74
2023/11/21 00:43:46;;;;;;;3.00;0.40;;;;;;;;;;5025458;28;20049;-74
2023/11/21 00:46:16;;;;;;;3.58;1.00;;;;;;;;;;5022923;28;20524;-74
2023/11/21 00:48:47;;;;;;;1.55;0.32;;;;;;;;;;5024664;28;20052;-74
2023/11/21 00:51:18;;;;;;;3.20;0.55;;;;;;;;;;5024390;28;20049;-75
2023/11/21 00:53:48;;;;;;;5.18;0.60;;;;;;;;;;5024260;28;20523;-76
2023/11/21 00:56:19;;;;;;;0.75;0.43;;;;;;;;;;5022745;28;20059;-74
2023/11/21 00:58:52;;;;;;;5.22;0.63;;;;;;;;;;5024999;28;20052;-75
2023/11/21 01:01:23;;;;;;;5.47;1.02;;;;;;;;;;5024568;28;20060;-76
2023/11/21 01:03:59;;;;;;;2.50;0.90;;;;;;;;;;5023807;28;20057;-75
2023/11/21 01:06:29;;;;;;;1.55;0.85;;;;;;;;;;5022901;28;20057;-75
2023/11/21 01:09:00;;;;;;;1.23;0.52;;;;;;;;;;5022616;28;20053;-76
2023/11/21 01:11:30;;;;;;;4.55;0.90;;;;;;;;;;5022436;28;20045;-73
2023/11/21 01:14:00;;;;;;;5.95;0.70;;;;;;;;;;5024655;28;20045;-75
2023/11/21 01:16:34;;;;;;;4.20;0.75;;;;;;;;;;5021675;28;20064;-73
2023/11/21 01:19:07;;;;;;;8.73;0.98;;;;;;;;;;5023408;28;20064;-76
2023/11/21 01:21:38;;;;;;;3.65;0.75;;;;;;;;;;5022054;28;20049;-75
2023/11/21 01:24:09;;;;;;;3.90;0.55;;;;;;;;;;5024377;28;20065;-73
2023/11/21 01:26:39;;;;;;;1.05;0.63;;;;;;;;;;5024081;28;20057;-81
2023/11/21 01:29:11;;;;;;;1.05;0.50;;;;;;;;;;5042244;28;20565;-74
2023/11/21 01:31:42;;;;;;;3.72;0.60;;;;;;;;;;5042899;28;20041;-75
2023/11/21 01:34:12;;;;;;;3.03;0.80;;;;;;;;;;5041978;28;20530;-76
2023/11/21 01:37:14;;;;;;;3.53;0.90;;;;;;;;;;5043250;28;20053;-73
2023/11/21 01:39:46;;;;;;;1.58;0.65;;;;;;;;;;5042259;28;20053;-73
2023/11/21 01:42:18;;;;;;;1.50;0.68;;;;;;;;;;5043046;28;20057;-75
2023/11/21 01:44:49;;;;;;;2.38;0.80;;;;;;;;;;5043221;28;20396;-75
2023/11/21 01:47:19;;;;;;;1.38;0.57;;;;;;;;;;5042436;28;20045;-73
2023/11/21 01:49:49;;;;;;;3.08;0.70;;;;;;;;;;5043763;28;20045;-74
2023/11/21 01:52:19;;;;;;;3.95;0.75;;;;;;;;;;5043303;28;20048;-76
2023/11/21 01:54:52;;;;;;;2.22;0.80;;;;;;;;;;5043440;28;20049;-75
2023/11/21 01:57:22;;;;;;;6.13;0.90;;;;;;;;;;5043079;28;20060;-73
2023/11/21 01:59:55;;;;;;;4.03;1.10;;;;;;;;;;5042382;28;20054;-73
2023/11/21 02:02:26;;;;;;;2.83;0.70;;;;;;;;;;5043521;28;20036;-76
2023/11/21 02:04:57;;;;;;;3.80;0.90;;;;;;;;;;5043040;28;20045;-76
2023/11/21 02:07:28;;;;;;;2.60;0.60;;;;;;;;;;5042321;28;20527;-76
2023/11/21 02:09:59;;;;;;;1.13;0.63;;;;;;;;;;5043129;28;20049;-75
2023/11/21 02:12:29;;;;;;;2.97;0.80;;;;;;;;;;5041239;28;20052;-74
2023/11/21 02:15:01;;;;;;;1.75;0.77;;;;;;;;;;5041368;28;20052;-73
2023/11/21 02:17:33;;;;;;;1.75;0.80;;;;;;;;;;5041412;28;20526;-75
2023/11/21 02:20:06;;;;;;;3.80;0.70;;;;;;;;;;5041907;28;20064;-72
2023/11/21 02:22:40;;;;;;;2.42;0.77;;;;;;;;;;5041877;28;20053;-75
2023/11/21 02:25:11;;;;;;;1.50;0.70;;;;;;;;;;5041791;28;20060;-75
2023/11/21 02:27:52;;;;;;;1.27;0.55;;;;;;;;;;5041668;28;20056;-73
2023/11/21 02:30:31;;;;;;;2.45;0.88;;;;;;;;;;5042081;28;20045;-75
2023/11/21 02:33:02;;;;;;;1.70;0.60;;;;;;;;;;5042783;28;20041;-75
2023/11/21 02:35:33;;;;;;;2.30;0.73;;;;;;;;;;5042877;28;20045;-73
2023/11/21 02:38:03;;;;;;;6.97;1.10;;;;;;;;;;5043308;28;20060;-72
2023/11/21 02:40:34;;;;;;;4.18;1.42;;;;;;;;;;5042639;28;20068;-74
2023/11/21 02:43:06;;;;;;;3.28;0.75;;;;;;;;;;5042167;28;20045;-73
2023/11/21 02:45:36;;;;;;;3.85;0.70;;;;;;;;;;5042308;28;20045;-74
2023/11/21 02:48:07;;;;;;;6.07;0.88;;;;;;;;;;5040950;28;20060;-74
2023/11/21 02:50:53;;;;;;;3.45;0.70;;;;;;;;;;5040969;28;20060;-74
2023/11/21 02:53:24;;;;;;;0.95;0.70;;;;;;;;;;5040717;28;20496;-73
2023/11/21 02:55:54;;;;;;;2.08;0.90;;;;;;;;;;5042750;28;20048;-74
2023/11/21 02:58:24;;;;;;;1.10;0.80;;;;;;;;;;5042601;28;20526;-74
2023/11/21 03:00:56;;;;;;;1.42;0.63;;;;;;;;;;5042557;28;20542;-74
2023/11/21 03:03:26;;;;;;;4.65;0.80;;;;;;;;;;5042056;28;20111;-74
2023/11/21 03:05:57;;;;;;;2.88;0.93;;;;;;;;;;5042219;28;20052;-73
2023/11/21 03:08:27;;;;;;;2.47;0.75;;;;;;;;;;5041054;28;20059;-75
2023/11/21 03:10:58;;;;;;;1.33;0.85;;;;;;;;;;5042696;28;20049;-75
2023/11/21 03:13:28;;;;;;;2.50;1.00;;;;;;;;;;5042009;28;20447;-74
2023/11/21 03:15:59;;;;;;;3.35;0.88;;;;;;;;;;5041900;28;20512;-75
2023/11/21 03:18:30;;;;;;;3.53;0.90;;;;;;;;;;5041875;28;20055;-74
2023/11/21 03:21:00;;;;;;;1.92;1.05;;;;;;;;;;5042326;28;20134;-74
2023/11/21 03:23:30;;;;;;;2.47;0.80;;;;;;;;;;5041995;28;20799;-74
2023/11/21 03:26:01;;;;;;;2.50;0.98;;;;;;;;;;5040822;28;20045;-72
2023/11/21 03:28:32;;;;;;;2.95;1.15;;;;;;;;;;5041770;28;20052;-74
2023/11/21 03:31:03;;;;;;;3.58;1.00;;;;;;;;;;5040992;28;20056;-75
2023/11/21 03:33:35;;;;;;;4.63;1.10;;;;;;;;;;5041875;28;20056;-73
2023/11/21 03:36:07;;;;;;;3.63;1.35;;;;;;;;;;5041764;28;20059;-74
2023/11/21 03:38:43;;;;;;;7.20;1.20;;;;;;;;;;5042574;28;20052;-75
2023/11/21 03:41:14;;;;;;;4.88;1.40;;;;;;;;;;5041251;28;20049;-72
2023/11/21 03:43:45;;;;;;;3.88;1.10;;;;;;;;;;5042276;28;20052;-74
2023/11/21 03:46:16;;;;;;;5.03;0.93;;;;;;;;;;5041520;28;20080;-74
2023/11/21 03:48:46;;;;;;;1.52;0.90;;;;;;;;;;5041543;28;20064;-74
2023/11/21 03:51:16;;;;;;;4.47;1.15;;;;;;;;;;5041785;28;20053;-74
2023/11/21 03:53:46;;;;;;;5.15;1.10;;;;;;;;;;5044493;28;20061;-74
2023/11/21 03:56:16;;;;;;;2.08;0.95;;;;;;;;;;5045403;28;20041;-74
2023/11/21 03:58:47;;;;;;;3.65;1.05;;;;;;;;;;5045498;28;20404;-73
2023/11/21 04:01:25;;;;;;;10.60;1.35;;;;;;;;;;5045260;28;20048;-74
2023/11/21 04:04:18;;;;;;;6.00;1.10;;;;;;;;;;5045526;28;20115;-77
2023/11/21 04:06:48;;;;;;;4.00;1.10;;;;;;;;;;5044907;28;20508;-72
2023/11/21 04:09:18;;;;;;;2.25;0.93;;;;;;;;;;5045154;28;20053;-74
2023/11/21 04:11:49;;;;;;;2.78;0.90;;;;;;;;;;5045441;28;20048;-75
2023/11/21 04:14:20;;;;;;;4.00;1.00;;;;;;;;;;5045356;28;20048;-73
2023/11/21 04:16:51;;;;;;;3.03;1.33;;;;;;;;;;5043573;28;20411;-73
2023/11/21 04:19:21;;;;;;;1.55;1.13;;;;;;;;;;5045614;28;20515;-75
2023/11/21 04:21:52;;;;;;;2.72;1.50;;;;;;;;;;5044827;28;20056;-74
2023/11/21 04:24:24;;;;;;;1.83;0.90;;;;;;;;;;5027780;28;20503;-75
2023/11/21 04:26:54;;;;;;;2.60;1.30;;;;;;;;;;5045092;28;20546;-74
2023/11/21 04:29:26;;;;;;;3.28;1.00;;;;;;;;;;5045231;28;20506;-75
2023/11/21 04:32:03;;;;;;;2.70;1.40;;;;;;;;;;5044754;28;20064;-75
2023/11/21 04:34:34;;;;;;;3.03;1.08;;;;;;;;;;5044652;28;20053;-73
2023/11/21 04:37:06;;;;;;;2.60;1.33;;;;;;;;;;5044980;28;20559;-74
2023/11/21 04:39:37;;;;;;;2.47;1.23;;;;;;;;;;5044314;28;20048;-74
2023/11/21 04:42:07;;;;;;;2.85;0.80;;;;;;;;;;5043856;28;20068;-74
2023/11/21 04:44:40;;;;;;;1.55;0.93;;;;;;;;;;5044922;28;20049;-72
2023/11/21 04:47:11;;;;;;;1.75;1.05;;;;;;;;;;5044416;28;20033;-76
2023/11/21 04:49:44;;;;;;;4.15;1.35;;;;;;;;;;5044776;28;20044;-76
2023/11/21 04:52:15;;;;;;;6.45;1.30;;;;;;;;;;5044383;28;20056;-75
2023/11/21 04:54:48;;;;;;;8.43;1.75;;;;;;;;;;5044866;28;20127;-73
2023/11/21 04:57:21;;;;;;;5.40;1.30;;;;;;;;;;5043429;28;20504;-75
2023/11/21 04:59:51;;;;;;;3.05;1.20;;;;;;;;;;5044265;28;20057;-75
2023/11/21 05:02:21;;;;;;;2.42;0.98;;;;;;;;;;5044885;28;20492;-75
2023/11/21 05:05:05;;;;;;;4.65;1.50;;;;;;;;;;5043916;28;20429;-74
2023/11/21 05:07:36;;;;;;;6.57;1.60;;;;;;;;;;5043935;28;20510;-75
2023/11/21 05:10:11;;;;;;;3.08;1.80;;;;;;;;;;5044140;28;20048;-75
2023/11/21 05:12:42;;;;;;;;;;;;;;;;;;5045148;28;20045;-74
2023/11/21 05:15:17;;;;;;;3.53;1.38;;;;;;;;;;5044096;28;20338;-74
2023/11/21 05:17:52;;;;;;;5.18;1.58;;;;;;;;;;5044074;28;20860;-74
2023/11/21 05:20:23;;;;;;;6.30;1.63;;;;;;;;;;5044187;28;20504;-74
2023/11/21 05:22:54;;;;;;;2.80;1.15;;;;;;;;;;5043899;28;20091;-74
2023/11/21 05:25:25;;;;;;;4.65;1.27;;;;;;;;;;5043383;28;20055;-77
2023/11/21 05:27:56;;;;;;;2.08;1.00;;;;;;;;;;5044575;28;20052;-75
2023/11/21 05:30:26;;;;;;;2.70;1.27;;;;;;;;;;5043715;28;20049;-75
2023/11/21 05:32:56;;;;;;;3.17;0.95;;;;;;;;;;5043572;28;20045;-74
2023/11/21 05:35:36;;;;;;;3.25;1.10;;;;;;;;;;5042314;28;20041;-74
2023/11/21 05:38:09;;;;;;;3.20;1.20;;;;;;;;;;5042276;28;20084;-75
2023/11/21 05:40:39;;;;;;;3.50;1.40;;;;;;;;;;5043419;28;20496;-74
2023/11/21 05:43:09;;;;;;;3.28;1.20;;;;;;;;;;5043363;28;20369;-73
2023/11/21 05:45:40;;;;;;;1.95;1.08;;;;;;;;;;5041858;28;20057;-75
2023/11/21 05:48:12;;;;;;;3.17;1.10;;;;;;;;;;5043555;28;20049;-75
2023/11/21 05:50:42;;;;;;;6.10;1.00;;;;;;;;;;5043845;28;20621;-75
2023/11/21 05:53:15;;;;;;;3.40;1.38;;;;;;;;;;5043334;28;20060;-75
2023/11/21 05:55:46;;;;;;;6.05;1.30;;;;;;;;;;5042438;28;20052;-74
2023/11/21 05:58:18;;;;;;;2.22;0.93;;;;;;;;;;5041942;28;20507;-72
2023/11/21 06:00:49;;;;;;;5.82;1.20;;;;;;;;;;5041769;28;20052;-75
2023/11/21 06:03:19;;;;;;;2.55;1.02;;;;;;;;;;5042565;28;20075;-76
2023/11/21 06:05:50;;;;;;;2.75;1.45;;;;;;;;;;5043149;28;20508;-75
2023/11/21 06:08:21;;;;;;;1.75;0.90;;;;;;;;;;5043018;28;20056;-73
2023/11/21 06:10:50;;;;;;;1.65;1.08;;;;;;;;;;5043025;28;20427;-72
2023/11/21 06:13:24;;;;;;;4.93;1.42;;;;;;;;;;5043067;28;20045;-72
2023/11/21 06:15:55;;;;;;;2.78;1.10;;;;;;;;;;5042514;28;20032;-73
2023/11/21 06:18:25;;;;;;;2.67;1.27;;;;;;;;;;5042655;28;20423;-75
2023/11/21 06:20:55;;;;;;;2.38;1.40;;;;;;;;;;5041972;28;20674;-76
2023/11/21 06:23:25;;;;;;;2.22;1.00;;;;;;;;;;5043222;28;20801;-74
2023/11/21 06:25:57;;;;;;;5.85;1.17;;;;;;;;;;5042815;28;20041;-73
2023/11/21 06:28:28;;;;;;;4.78;1.30;;;;;;;;;;5043870;28;20049;-73
2023/11/21 06:31:04;;;;;;;2.60;1.20;;;;;;;;;;5041093;28;20753;-74
2023/11/21 06:33:35;;;;;;;4.53;1.30;;;;;;;;;;5040859;28;20595;-74
2023/11/21 06:36:06;;;;;;;2.92;1.92;;;;;;;;;;5042708;28;20424;-75
2023/11/21 06:38:36;;;;;;;4.75;1.38;;;;;;;;;;5042130;28;20056;-74
2023/11/21 06:41:08;;;;;;;6.20;1.23;;;;;;;;;;5042538;28;20064;-75
2023/11/21 06:43:38;;;;;;;1.67;1.00;;;;;;;;;;5042685;28;20076;-73
2023/11/21 06:46:08;;;;;;;3.22;1.35;;;;;;;;;;5040947;28;20048;-76
2023/11/21 06:48:39;;;;;;;6.68;1.48;;;;;;;;;;5041671;28;20504;-74
2023/11/21 06:51:10;;;;;;;4.55;1.05;;;;;;;;;;5042451;28;20049;-75
2023/11/21 06:53:40;;;;;;;3.05;1.10;;;;;;;;;;5042222;28;20135;-74
2023/11/21 06:56:18;;;;;;;4.43;1.52;;;;;;;;;;5042529;28;20041;-74
2023/11/21 06:58:49;;;;;;;4.00;1.23;;;;;;;;;;5042624;28;20396;-74
2023/11/21 07:01:20;;;;;;;2.40;1.10;;;;;;;;;;5041051;28;20060;-74
2023/11/21 07:03:50;;;;;;;5.30;1.08;;;;;;;;;;5024217;28;20052;-74
2023/11/21 07:06:21;;;;;;;7.25;1.30;;;;;;;;;;5041896;28;20514;-73
2023/11/21 07:08:52;;;;;;;2.72;1.45;;;;;;;;;;5042281;28;20431;-73
2023/11/21 07:11:23;;;;;;;3.60;1.50;;;;;;;;;;5042491;28;20420;-73
2023/11/21 07:13:53;;;;;;;4.53;1.67;;;;;;;;;;5041728;28;20041;-73
2023/11/21 07:16:23;;;;;;;5.88;1.27;;;;;;;;;;5042021;28;20041;-74
2023/11/21 07:18:54;;;;;;;1.80;1.20;;;;;;;;;;5042299;28;20526;-74
2023/11/21 07:21:26;;;;;;;2.42;1.20;;;;;;;;;;5041340;28;20053;-75
2023/11/21 07:24:02;;;;;;;3.70;1.48;;;;;;;;;;5041728;28;20049;-75
2023/11/21 07:26:36;;;;;;;2.30;1.38;;;;;;;;;;5039576;28;20471;-73
2023/11/21 07:29:06;;;;;;;1.73;0.90;;;;;;;;;;5046183;28;20052;-72
2023/11/21 07:31:38;;;;;;;8.43;2.13;;;;;;;;;;5046191;28;20067;-76
2023/11/21 07:34:09;;;;;;;2.42;1.17;;;;;;;;;;5044599;28;20408;-75
2023/11/21 07:36:46;;;;;;;9.27;1.63;;;;;;;;;;5046333;28;20793;-75
2023/11/21 07:39:21;;;;;;;1.65;1.10;;;;;;;;;;5046147;28;20053;-74
2023/11/21 07:41:51;;;;;;;2.13;1.02;;;;;;;;;;5046142;28;20045;-76
2023/11/21 07:44:22;;;;;;;1.58;0.98;;;;;;;;;;5046233;28;20048;-73
2023/11/21 07:46:57;;;;;;;2.58;1.10;;;;;;;;;;5045754;28;20045;-75
2023/11/21 07:49:28;;;;;;;6.70;1.83;;;;;;;;;;5046188;28;20389;-73
2023/11/21 07:51:58;;;;;;;4.72;1.35;;;;;;;;;;5046265;28;20053;-75
2023/11/21 07:54:28;;;;;;;3.38;1.30;;;;;;;;;;5046020;28;20496;-73
2023/11/21 07:56:58;;;;;;;5.07;1.30;;;;;;;;;;5045833;28;20508;-75
2023/11/21 07:59:28;;;;;;;4.10;1.42;;;;;;;;;;5045147;28;20049;-74
2023/11/21 08:01:59;;;;;;;1.55;1.33;;;;;;;;;;5045101;28;20069;-76
2023/11/21 08:04:28;;;;;;;1.77;1.25;;;;;;;;;;5045431;28;20048;-74
2023/11/21 08:07:04;;;;;;;2.78;1.17;;;;;;;;;;5045197;28;20051;-74
2023/11/21 08:09:34;;;;;;;2.05;1.30;;;;;;;;;;5045672;28;20048;-73
2023/11/21 08:12:04;;;;;;;5.18;1.60;;;;;;;;;;5045393;28;20049;-73
2023/11/21 08:14:38;;;;;;;2.65;1.58;;;;;;;;;;5045253;28;20048;-76
2023/11/21 08:17:10;;;;;;;1.95;1.30;;;;;;;;;;5045645;28;20677;-76
2023/11/21 08:19:43;;;;;;;5.57;2.15;;;;;;;;;;5045602;28;20041;-74
2023/11/21 08:22:13;;;;;;;3.28;1.50;;;;;;;;;;5045454;28;20045;-74
2023/11/21 08:24:45;;;;;;;6.05;2.00;;;;;;;;;;5045787;28;20443;-74
2023/11/21 08:27:16;;;;;;;4.00;1.70;;;;;;;;;;5045516;28;20509;-74
2023/11/21 08:29:46;;;;;;;3.10;1.55;;;;;;;;;;5044605;28;20049;-76
2023/11/21 08:32:16;;;;;;;4.47;1.50;;;;;;;;;;5044771;28;20051;-74
2023/11/21 08:34:50;;;;;;;5.00;1.50;;;;;;;;;;5044618;28;20564;-75
2023/11/21 08:37:22;;;;;;;5.25;2.05;;;;;;;;;;5043961;28;20417;-74
2023/11/21 08:39:52;;;;;;;2.92;1.58;;;;;;;;;;5044781;28;20059;-74
2023/11/21 08:42:23;;;;;;;5.22;1.45;;;;;;;;;;5044566;28;20052;-75
2023/11/21 08:44:53;;;;;;;5.78;1.60;;;;;;;;;;5044717;28;20048;-75
2023/11/21 08:47:26;;;;;;;2.05;1.60;;;;;;;;;;5044647;28;20048;-74
2023/11/21 08:49:58;;;;;;;4.97;1.83;;;;;;;;;;5043141;28;20052;-76
2023/11/21 08:52:28;;;;;;;6.43;1.67;;;;;;;;;;5044772;28;20774;-74
2023/11/21 08:55:02;;;;;;;2.47;1.50;;;;;;;;;;5044524;28;20491;-76
2023/11/21 08:57:35;;;;;;;6.90;2.20;;;;;;;;;;5045086;28;20049;-74
2023/11/21 09:00:07;;;;;;;5.40;1.70;;;;;;;;;;5045123;28;20793;-74
2023/11/21 09:02:41;;;;;;;7.72;2.00;;;;;;;;;;5043097;28;20385;-74
2023/11/21 09:05:14;;;;;;;3.15;2.00;;;;;;;;;;5044527;28;20072;-76
2023/11/21 09:07:46;;;;;;;3.67;1.50;;;;;;;;;;5042549;28;20055;-77
2023/11/21 09:10:16;;;;;;;3.28;2.08;;;;;;;;;;5044327;28;20526;-75
2023/11/21 09:12:46;;;;;;;3.53;1.65;;;;;;;;;;5044211;28;20040;-74
2023/11/21 09:15:26;;;;;;;3.33;1.67;;;;;;;;;;5044106;28;20416;-74
2023/11/21 09:18:01;;;;;;;5.30;1.80;;;;;;;;;;5044033;28;20053;-76
2023/11/21 09:20:32;;;;;;;2.85;1.63;;;;;;;;;;5043957;28;20076;-76
2023/11/21 09:23:02;;;;;;;5.63;1.90;;;;;;;;;;5044230;28;20049;-74
2023/11/21 09:25:34;;;;;;;3.50;1.58;;;;;;;;;;5043904;28;20053;-77
2023/11/21 09:28:09;;;;;;;4.85;1.77;;;;;;;;;;5044286;28;20048;-74
2023/11/21 09:30:39;;;;;;;4.97;2.25;;;;;;;;;;5043478;28;20052;-74
2023/11/21 09:33:10;;;;;;;7.25;3.63;;;;;;;;;;5043720;28;20064;-78
2023/11/21 09:35:43;;;;;;;17.67;3.95;;;;;;;;;;5043325;28;20057;-79
2023/11/21 09:38:14;;;;;;;7.30;2.20;;;;;;;;;;5043719;28;20045;-74
2023/11/21 09:40:44;;;;;;;8.60;2.50;;;;;;;;;;5043577;28;20056;-76
2023/11/21 09:43:18;;;;;;;9.25;2.63;;;;;;;;;;5043624;28;20039;-75
2023/11/21 09:45:57;;;;;;;7.13;2.00;;;;;;;;;;5043410;28;20049;-84
2023/11/21 09:48:29;;;;;;;10.43;2.45;;;;;;;;;;5044311;28;20053;-75
2023/11/21 09:51:03;;;;;;;4.30;1.50;;;;;;;;;;5043288;28;20049;-79
2023/11/21 09:53:35;;;;;;;9.85;1.67;;;;;;;;;;5043907;28;20053;-74
2023/11/21 09:56:06;;;;;;;10.35;2.15;;;;;;;;;;5043015;28;20045;-75
2023/11/21 09:58:37;;;;;;;4.50;1.80;;;;;;;;;;5042854;28;20051;-78
2023/11/21 10:01:09;;;;;;;5.07;2.00;;;;;;;;;;5042879;28;20435;-76
2023/11/21 10:03:39;;;;;;;3.90;1.73;;;;;;;;;;5043084;28;20049;-76
2023/11/21 10:06:14;;;;;;;8.68;2.03;;;;;;;;;;5043047;28;20431;-73
2023/11/21 10:08:46;;;;;;;6.22;2.20;;;;;;;;;;5043013;28;20515;-75
2023/11/21 10:11:29;;;;;;;4.68;1.98;;;;;;;;;;5043082;28;20048;-77
2023/11/21 10:14:02;;;;;;;4.65;2.00;;;;;;;;;;5043263;28;20056;-76
2023/11/21 10:16:32;;;;;;;6.63;2.40;;;;;;;;;;5042342;28;20052;-77
2023/11/21 10:19:06;;;;;;;4.22;2.05;;;;;;;;;;5042880;28;20060;-75
2023/11/21 10:21:40;;;;;;;10.48;2.03;;;;;;;;;;5043285;28;20571;-75
2023/11/21 10:24:12;;;;;;;7.22;1.98;;;;;;;;;;5043230;28;20393;-78
2023/11/21 10:26:43;;;;;;;4.13;1.80;;;;;;;;;;5041519;28;20052;-77
2023/11/21 10:29:35;;;;;;;7.45;2.63;;;;;;;;;;5042740;28;20052;-82
2023/11/21 10:32:06;;;;;;;9.93;3.30;;;;;;;;;;5042299;28;20416;-76
2023/11/21 10:34:36;;;;;;;10.18;3.50;;;;;;;;;;5042552;28;20040;-76
2023/11/21 10:37:13;;;;;;;20.10;2.72;;;;;;;;;;5042486;28;20065;-74
2023/11/21 10:39:43;;;;;;;11.77;2.47;;;;;;;;;;5042537;28;20420;-76
2023/11/21 10:42:15;;;;;;;13.27;3.38;;;;;;;;;;5041135;28;20091;-77
2023/11/21 10:44:46;;;;;;;13.43;2.95;;;;;;;;;;5042970;28;20049;-74
2023/11/21 10:47:19;;;;;;;11.20;2.30;;;;;;;;;;5042405;28;20049;-75
2023/11/21 10:49:49;;;;;;;8.73;2.63;;;;;;;;;;5042947;28;20053;-74
2023/11/21 10:52:28;;;;;;;9.93;2.58;;;;;;;;;;5042573;28;20072;-74
2023/11/21 10:54:59;;;;;;;7.95;3.13;;;;;;;;;;5041153;28;20610;-72
2023/11/21 10:57:31;;;;;;;11.50;3.50;;;;;;;;;;5042492;28;20045;-79
2023/11/21 11:00:03;;;;;;;19.58;3.72;;;;;;;;;;5041297;28;20049;-74
2023/11/21 11:02:35;;;;;;;6.97;3.25;;;;;;;;;;5042362;28;20059;-74
2023/11/21 11:05:11;;;;;;;14.38;3.67;;;;;;;;;;5042248;28;20475;-73
2023/11/21 11:07:44;;;;;;;10.77;3.53;;;;;;;;;;5042038;28;20055;-76
2023/11/21 11:10:16;;;;;;;8.23;3.70;;;;;;;;;;5042059;28;20503;-72
2023/11/21 11:12:52;;;;;;;11.07;4.13;;;;;;;;;;5042417;28;20439;-74
2023/11/21 11:15:22;;;;;;;;;;;;;;;;;;5042671;28;20522;-73
2023/11/21 11:17:56;;;;;;;7.05;4.30;;;;;;;;;;5042380;28;19958;-80
2023/11/21 11:20:39;;;;;;;7.60;4.28;;;;;;;;;;5042492;28;20049;-75
2023/11/21 11:23:31;;;;;;;12.77;4.40;;;;;;;;;;5024849;28;20056;-76
2023/11/21 11:26:21;;;;;;;7.43;4.43;;;;;;;;;;5041774;28;20064;-73
2023/11/21 11:29:11;;;;;;;6.22;3.88;;;;;;;;;;5041684;28;20055;-74
2023/11/21 11:32:13;;;;;;;7.68;4.38;;;;;;;;;;5041871;28;20052;-75
2023/11/21 11:35:08;;;;;;;14.02;5.15;;;;;;;;;;5042313;28;20400;-76
2023/11/21 11:37:39;;;;;;;6.65;4.20;;;;;;;;;;5042320;28;20076;-76
2023/11/21 11:40:12;;;;;;;7.85;3.88;;;;;;;;;;5043420;28;20049;-76
2023/11/21 11:43:05;;;;;;;8.88;4.22;;;;;;;;;;5041694;28;20496;-74
2023/11/21 11:45:41;;;;;;;7.15;4.05;;;;;;;;;;5042534;28;20057;-80
2023/11/21 11:48:14;;;;;;;10.40;4.45;;;;;;;;;;5042696;28;20049;-73
2023/11/21 11:51:11;;;;;;;6.05;3.90;;;;;;;;;;5041782;28;20049;-75
2023/11/21 11:53:43;;;;;;;12.48;4.78;;;;;;;;;;5042076;28;20502;-75
2023/11/21 11:56:27;;;;;;;6.80;4.25;;;;;;;;;;5041750;28;20045;-74
2023/11/21 11:58:59;;;;;;;14.20;5.28;;;;;;;;;;5041879;28;20036;-76
2023/11/21 12:01:32;;;;;;;9.43;5.43;;;;;;;;;;5041216;28;20052;-75
2023/11/21 12:04:20;;;;;;;13.40;5.38;;;;;;;;;;5041458;28;20516;-77
2023/11/21 12:07:06;;;;;;;8.30;4.70;;;;;;;;;;5041656;28;20045;-75
2023/11/21 12:09:37;;;;;;;6.95;5.07;;;;;;;;;;5041752;28;20044;-75
2023/11/21 12:12:09;;;;;;;10.55;4.95;;;;;;;;;;5042786;28;20041;-84
2023/11/21 12:14:40;;;;;;;10.10;4.82;;;;;;;;;;5044828;28;20610;-73
2023/11/21 12:17:11;;;;;;;10.90;5.10;;;;;;;;;;5046047;28;20500;-79
2023/11/21 12:19:41;;;;;;;11.00;5.53;;;;;;;;;;5045554;28;20423;-75
2023/11/21 12:22:12;;;;;;;11.60;5.95;;;;;;;;;;5043707;28;20049;-74
2023/11/21 12:24:43;;;;;;;8.50;5.20;;;;;;;;;;5044987;28;20540;-75
2023/11/21 12:27:14;;;;;;;7.30;5.00;;;;;;;;;;5045420;28;20523;-74
2023/11/21 12:29:45;;;;;;;11.38;5.47;;;;;;;;;;5044855;28;20041;-74
2023/11/21 12:32:18;;;;;;;8.05;5.30;;;;;;;;;;5045253;28;20111;-76
2023/11/21 12:34:49;;;;;;;9.35;5.07;;;;;;;;;;5043242;28;20049;-77
2023/11/21 12:37:20;;;;;;;9.38;5.65;;;;;;;;;;5045249;28;20053;-75
2023/11/21 12:39:53;;;;;;;9.05;5.50;;;;;;;;;;5044884;28;20049;-73
2023/11/21 12:42:26;;;;;;;10.82;7.40;;;;;;;;;;5044459;28;20419;-80
2023/11/21 12:45:28;;;;;;;11.65;5.45;;;;;;;;;;5045071;28;20641;-76
2023/11/21 12:48:07;;;;;;;8.35;5.38;;;;;;;;;;5043978;28;20057;-78
2023/11/21 12:50:41;;;;;;;8.35;5.50;;;;;;;;;;5028072;28;20064;-74
2023/11/21 12:53:13;;;;;;;9.10;5.20;;;;;;;;;;5044892;28;20045;-78
2023/11/21 12:55:49;;;;;;;8.00;5.25;;;;;;;;;;5044597;28;20056;-74
2023/11/21 12:58:23;;;;;;;9.13;6.10;;;;;;;;;;5045112;28;20515;-75
2023/11/21 13:00:54;;;;;;;7.97;5.60;;;;;;;;;;5044263;28;20044;-74
2023/11/21 13:03:27;;;;;;;10.30;6.15;;;;;;;;;;5044260;28;20048;-75
2023/11/21 13:05:58;;;;;;;16.33;6.43;;;;;;;;;;5044661;28;20841;-81
2023/11/21 13:08:30;;;;;;;9.20;5.88;;;;;;;;;;5044715;28;20060;-74
2023/11/21 13:11:02;;;;;;;13.02;5.53;;;;;;;;;;5044123;28;20052;-74
2023/11/21 13:13:33;;;;;;;10.70;5.63;;;;;;;;;;5044030;28;20048;-75
2023/11/21 13:16:04;;;;;;;14.23;5.38;;;;;;;;;;5044117;28;20587;-75
2023/11/21 13:18:36;;;;;;;11.68;5.82;;;;;;;;;;5044818;28;20523;-76
2023/11/21 13:21:17;;;;;;;9.18;5.65;;;;;;;;;;5044236;28;20064;-74
2023/11/21 13:23:50;;;;;;;16.95;6.57;;;;;;;;;;5043596;28;20049;-75
2023/11/21 13:26:24;;;;;;;8.73;5.65;;;;;;;;;;5042597;28;20515;-78
2023/11/21 13:28:54;;;;;;;8.13;5.55;;;;;;;;;;5043719;28;20057;-75
2023/11/21 13:31:32;;;;;;;9.23;5.65;;;;;;;;;;5043840;28;20060;-75
2023/11/21 13:34:08;;;;;;;10.48;5.95;;;;;;;;;;5043871;28;20512;-75
2023/11/21 13:36:42;;;;;;;12.63;6.60;;;;;;;;;;5044554;28;20412;-74
2023/11/21 13:39:15;;;;;;;10.18;5.43;;;;;;;;;;5043928;28;20060;-75
2023/11/21 13:41:48;;;;;;;9.07;5.32;;;;;;;;;;5044369;28;20041;-75
2023/11/21 13:44:34;;;;;;;8.57;5.80;;;;;;;;;;5043971;28;20419;-75
2023/11/21 13:47:07;;;;;;;8.75;5.72;;;;;;;;;;5043731;28;20068;-76
2023/11/21 13:49:40;;;;;;;8.30;5.72;;;;;;;;;;5043176;28;20049;-74
2023/11/21 13:52:15;;;;;;;9.57;5.68;;;;;;;;;;5043419;28;20045;-75
2023/11/21 13:54:46;;;;;;;12.45;6.10;;;;;;;;;;5041703;28;20064;-76
2023/11/21 13:57:21;;;;;;;7.75;5.57;;;;;;;;;;5044020;28;20061;-76
2023/11/21 13:59:52;;;;;;;11.48;7.00;;;;;;;;;;5043465;28;20415;-75
2023/11/21 14:02:32;;;;;;;10.70;6.28;;;;;;;;;;5043337;28;20052;-75
2023/11/21 14:05:09;;;;;;;8.77;5.22;;;;;;;;;;5042795;28;20052;-75
2023/11/21 14:07:39;;;;;;;10.38;6.07;;;;;;;;;;5042447;28;20530;-75
2023/11/21 14:10:14;;;;;;;8.82;5.75;;;;;;;;;;5041734;28;20053;-75
2023/11/21 14:12:45;;;;;;;9.88;5.90;;;;;;;;;;5043959;28;20056;-76
2023/11/21 14:15:18;;;;;;;11.38;6.43;;;;;;;;;;5043421;28;20075;-76
2023/11/21 14:17:49;;;;;;;8.43;5.50;;;;;;;;;;5042987;28;20060;-75
2023/11/21 14:20:21;;;;;;;8.02;5.80;;;;;;;;;;5042071;28;20057;-74
2023/11/21 14:22:52;;;;;;;13.30;6.70;;;;;;;;;;5042716;28;20416;-75
2023/11/21 14:25:22;;;;;;;7.80;5.13;;;;;;;;;;5041201;28;20056;-76
2023/11/21 14:27:53;;;;;;;9.43;6.00;;;;;;;;;;5042971;28;20040;-76
2023/11/21 14:30:23;;;;;;;8.93;6.15;;;;;;;;;;5043062;28;20056;-76
2023/11/21 14:32:54;;;;;;;9.93;5.75;;;;;;;;;;5041224;28;20049;-74
2023/11/21 14:35:26;;;;;;;8.38;5.80;;;;;;;;;;5042785;28;20569;-72
2023/11/21 14:37:58;;;;;;;11.80;6.05;;;;;;;;;;5043086;28;20045;-73
2023/11/21 14:40:40;;;;;;;10.48;5.68;;;;;;;;;;5042909;28;20037;-74
2023/11/21 14:43:12;;;;;;;9.90;6.10;;;;;;;;;;5042526;28;20052;-75
2023/11/21 14:45:42;;;;;;;9.00;5.50;;;;;;;;;;5043082;28;20049;-74
2023/11/21 14:48:16;;;;;;;10.38;5.88;;;;;;;;;;5042741;28;20090;-78
2023/11/21 14:51:31;;;;;;;12.25;6.38;;;;;;;;;;5041039;28;20056;-75
2023/11/21 14:53:54;;;;;;;10.38;6.40;;;;;;;;;;5046291;28;20063;-75
2023/11/21 14:56:30;;;;;;;11.07;6.10;;;;;;;;;;5042194;28;20037;-76
2023/11/21 14:59:23;;;;;;;13.45;9.90;;;;;;;;;;5042554;28;20057;-77
2023/11/21 15:01:57;;;;;;;9.73;6.05;;;;;;;;;;5043018;28;20059;-76
2023/11/21 15:04:38;;;;;;;7.47;5.55;;;;;;;;;;5041992;28;20045;-76
2023/11/21 15:07:11;;;;;;;9.50;5.85;;;;;;;;;;5042370;28;20053;-84
2023/11/21 15:09:53;;;;;;;10.00;5.82;;;;;;;;;;5040834;28;20064;-74
2023/11/21 15:12:26;;;;;;;8.75;5.65;;;;;;;;;;5040987;28;20045;-75
2023/11/21 15:14:57;;;;;;;9.32;5.57;;;;;;;;;;5045802;28;20569;-74